createdAt,value
2022-08-16T00:01:56.154Z,100174.88
2022-08-16T00:04:28.111Z,100174.41
2022-08-16T00:06:55.807Z,100175.22
2022-08-16T00:09:23.445Z,100175.78
2022-08-16T00:11:52.759Z,100178.50
2022-08-16T00:14:29.122Z,100180.03
2022-08-16T00:16:58.582Z,100181.25
2022-08-16T00:19:41.331Z,100185.09
2022-08-16T00:22:13.570Z,100182.81
2022-08-16T00:24:44.893Z,100193.81
2022-08-16T00:27:14.596Z,100194.59
2022-08-16T00:29:42.429Z,100191.06
2022-08-16T00:32:10.900Z,100195.16
2022-08-16T00:34:45.131Z,100195.56
2022-08-16T00:37:24.609Z,100190.63
2022-08-16T00:39:57.115Z,100188.53
2022-08-16T00:42:31.662Z,100194.31
2022-08-16T00:45:58.209Z,100198.03
2022-08-16T00:48:30.947Z,100194.84
2022-08-16T00:51:02.961Z,100182.53
2022-08-16T00:53:32.676Z,100186.94
2022-08-16T00:56:05.217Z,100180.91
2022-08-16T00:58:35.633Z,100174.75
2022-08-16T01:01:08.276Z,100182.72
2022-08-16T01:03:41.585Z,100170.81
2022-08-16T01:06:39.698Z,100173.53
2022-08-16T01:09:00.049Z,100172.75
2022-08-16T01:11:29.392Z,100165.09
2022-08-16T01:14:03.366Z,100163.25
2022-08-16T01:16:30.994Z,100160.03
2022-08-16T01:19:07.648Z,100164.56
2022-08-16T01:21:52.699Z,100169.59
2022-08-16T01:24:51.806Z,100162.81
2022-08-16T01:27:39.473Z,100168.47
2022-08-16T01:30:19.220Z,100167.25
2022-08-16T01:33:01.665Z,100171.69
2022-08-16T01:35:43.356Z,100169.66
2022-08-16T01:38:28.427Z,100164.72
2022-08-16T01:41:08.064Z,100159.59
2022-08-16T01:43:38.994Z,100168.03
2022-08-16T01:46:39.696Z,100166.53
2022-08-16T01:50:40.703Z,100168.91
2022-08-16T01:52:29.635Z,100173.53
2022-08-16T01:55:17.415Z,100168.34
2022-08-16T01:57:53.739Z,100164.97
2022-08-16T02:00:29.488Z,100161.38
2022-08-16T02:02:59.507Z,100167.16
2022-08-16T02:05:30.598Z,100168.09
2022-08-16T02:08:00.518Z,100160.50
2022-08-16T02:10:28.805Z,100161.66
2022-08-16T02:13:00.708Z,100166.31
2022-08-16T02:15:35.604Z,100163.41
2022-08-16T02:18:12.438Z,100157.00
2022-08-16T02:20:42.649Z,100155.69
2022-08-16T02:23:13.863Z,100168.34
2022-08-16T02:25:51.922Z,100159.06
2022-08-16T02:28:23.533Z,100158.22
2022-08-16T02:30:52.804Z,100146.19
2022-08-16T02:33:44.050Z,100135.84
2022-08-16T02:36:47.177Z,100127.06
2022-08-16T02:39:07.714Z,100130.22
2022-08-16T02:44:06.138Z,100113.91
2022-08-16T02:46:33.911Z,100122.84
2022-08-16T02:49:04.122Z,100121.97
2022-08-16T02:51:35.852Z,100128.31
2022-08-16T02:54:04.684Z,100125.91
2022-08-16T02:56:33.095Z,100112.06
2022-08-16T02:59:00.675Z,100101.56
2022-08-16T03:01:36.733Z,100090.44
2022-08-16T03:04:29.170Z,100097.94
2022-08-16T03:07:01.753Z,100097.97
2022-08-16T03:09:41.468Z,100099.03
2022-08-16T03:12:16.680Z,100098.16
2022-08-16T03:14:47.049Z,100101.50
2022-08-16T03:17:16.358Z,100116.09
2022-08-16T03:19:47.900Z,100118.13
2022-08-16T03:22:29.009Z,100117.78
2022-08-16T03:25:07.749Z,100114.16
2022-08-16T03:27:39.005Z,100120.72
2022-08-16T03:30:19.094Z,100116.16
2022-08-16T03:32:52.207Z,100131.34
2022-08-16T03:35:32.687Z,100127.47
2022-08-16T03:38:32.864Z,100130.69
2022-08-16T03:40:57.425Z,100139.03
2022-08-16T03:43:50.659Z,100144.19
2022-08-16T03:46:47.825Z,100138.94
2022-08-16T03:49:10.761Z,100148.00
2022-08-16T03:51:41.123Z,100150.34
2022-08-16T03:54:12.730Z,100150.03
2022-08-16T03:56:57.168Z,100151.59
2022-08-16T03:59:30.288Z,100153.31
2022-08-16T04:02:22.041Z,100141.75
2022-08-16T04:04:51.250Z,100147.47
2022-08-16T04:07:18.530Z,100143.81
2022-08-16T04:09:47.866Z,100156.31
2022-08-16T04:12:54.823Z,100145.69
2022-08-16T04:15:07.930Z,100153.38
2022-08-16T04:17:38.787Z,100147.06
2022-08-16T04:20:23.618Z,100154.91
2022-08-16T04:22:57.047Z,100145.38
2022-08-16T04:25:26.485Z,100147.44
2022-08-16T04:27:55.936Z,100144.63
2022-08-16T04:30:31.827Z,100147.44
2022-08-16T04:33:02.116Z,100149.38
2022-08-16T04:35:34.611Z,100149.84
2022-08-16T04:38:11.121Z,100146.22
2022-08-16T04:40:50.055Z,100150.66
2022-08-16T04:43:18.735Z,100147.75
2022-08-16T04:45:47.344Z,100142.94
2022-08-16T04:48:33.850Z,100146.59
2022-08-16T04:51:11.830Z,100152.16
2022-08-16T04:53:45.348Z,100159.03
2022-08-16T04:56:16.543Z,100152.56
2022-08-16T04:58:46.825Z,100152.50
2022-08-16T05:01:18.588Z,100161.44
2022-08-16T05:03:59.606Z,100163.78
2022-08-16T05:06:42.420Z,100163.16
2022-08-16T05:09:19.291Z,100164.66
2022-08-16T05:11:51.375Z,100177.03
2022-08-16T05:14:20.298Z,100169.53
2022-08-16T05:17:06.492Z,100175.91
2022-08-16T05:19:36.031Z,100182.28
2022-08-16T05:22:17.482Z,100184.25
2022-08-16T05:24:46.976Z,100188.34
2022-08-16T05:27:14.241Z,100190.69
2022-08-16T05:30:01.059Z,100185.34
2022-08-16T05:32:32.257Z,100194.56
2022-08-16T05:35:05.010Z,100196.66
2022-08-16T05:37:39.713Z,100193.81
2022-08-16T05:40:10.354Z,100195.25
2022-08-16T05:42:47.860Z,100188.97
2022-08-16T05:45:22.107Z,100195.47
2022-08-16T05:47:59.589Z,100198.31
2022-08-16T05:50:35.020Z,100193.41
2022-08-16T05:53:04.104Z,100202.94
2022-08-16T05:55:40.740Z,100199.75
2022-08-16T05:58:08.566Z,100199.78
2022-08-16T06:00:37.114Z,100206.22
2022-08-16T06:03:04.430Z,100209.41
2022-08-16T06:06:08.523Z,100213.03
2022-08-16T06:08:41.945Z,100210.06
2022-08-16T06:11:13.339Z,100217.28
2022-08-16T06:13:43.619Z,100217.03
2022-08-16T06:16:18.116Z,100218.97
2022-08-16T06:18:46.347Z,100221.44
2022-08-16T06:21:14.501Z,100221.03
2022-08-16T06:23:54.033Z,100218.47
2022-08-16T06:26:22.700Z,100217.19
2022-08-16T06:28:52.622Z,100223.75
2022-08-16T06:31:26.303Z,100229.47
2022-08-16T06:33:55.412Z,100224.22
2022-08-16T06:36:24.104Z,100226.97
2022-08-16T06:39:20.579Z,100217.25
2022-08-16T06:41:58.820Z,100208.75
2022-08-16T06:44:44.675Z,100213.06
2022-08-16T06:47:52.517Z,100217.59
2022-08-16T06:50:22.062Z,100224.09
2022-08-16T06:53:00.277Z,100225.97
2022-08-16T06:55:40.329Z,100222.00
2022-08-16T06:58:22.725Z,100217.72
2022-08-16T07:01:09.626Z,100218.91
2022-08-16T07:03:55.542Z,100219.22
2022-08-16T07:06:28.131Z,100225.41
2022-08-16T07:09:00.226Z,100221.50
2022-08-16T07:11:47.462Z,100218.13
2022-08-16T07:14:24.789Z,100227.72
2022-08-16T07:16:54.662Z,100239.03
2022-08-16T07:19:22.219Z,100229.56
2022-08-16T07:22:38.316Z,100225.28
2022-08-16T07:24:56.970Z,100228.75
2022-08-16T07:27:24.383Z,100228.38
2022-08-16T07:29:55.599Z,100241.56
2022-08-16T07:32:29.596Z,100233.72
2022-08-16T07:34:58.974Z,100234.31
2022-08-16T07:37:27.370Z,100237.13
2022-08-16T07:40:11.192Z,100243.91
2022-08-16T07:42:42.786Z,100241.63
2022-08-16T07:45:10.666Z,100245.81
2022-08-16T07:47:42.893Z,100245.09
2022-08-16T07:50:57.263Z,100248.34
2022-08-16T07:53:02.096Z,100249.47
2022-08-16T07:55:45.858Z,100248.94
2022-08-16T07:58:34.925Z,100239.38
2022-08-16T08:01:10.911Z,100236.06
2022-08-16T08:03:49.089Z,100249.34
2022-08-16T08:06:24.926Z,100241.47
2022-08-16T08:08:57.613Z,100241.22
2022-08-16T08:11:28.563Z,100249.25
2022-08-16T08:14:03.857Z,100246.56
2022-08-16T08:16:38.387Z,100237.97
2022-08-16T08:19:18.546Z,100244.38
2022-08-16T08:22:01.533Z,100248.81
2022-08-16T08:24:48.829Z,100243.25
2022-08-16T08:27:23.001Z,100243.13
2022-08-16T08:30:09.236Z,100245.09
2022-08-16T08:33:02.257Z,100248.50
2022-08-16T08:35:34.839Z,100252.72
2022-08-16T08:38:03.084Z,100252.16
2022-08-16T08:40:33.829Z,100249.63
2022-08-16T08:43:11.455Z,100262.03
2022-08-16T08:45:52.695Z,100261.09
2022-08-16T08:48:33.648Z,100256.66
2022-08-16T08:51:08.941Z,100253.81
2022-08-16T08:53:43.684Z,100250.78
2022-08-16T08:56:23.175Z,100246.31
2022-08-16T08:59:00.021Z,100259.41
2022-08-16T09:01:43.199Z,100252.41
2022-08-16T09:04:27.786Z,100260.91
2022-08-16T09:06:56.534Z,100256.41
2022-08-16T09:09:33.709Z,100267.19
2022-08-16T09:12:06.777Z,100265.13
2022-08-16T09:14:57.175Z,100265.06
2022-08-16T09:17:49.124Z,100268.94
2022-08-16T09:20:16.775Z,100272.91
2022-08-16T09:22:44.342Z,100269.84
2022-08-16T09:25:26.322Z,100280.56
2022-08-16T09:28:09.377Z,100280.13
2022-08-16T09:30:44.023Z,100285.97
2022-08-16T09:33:13.667Z,100283.88
2022-08-16T09:35:42.750Z,100280.84
2022-08-16T09:38:12.875Z,100281.44
2022-08-16T09:40:59.098Z,100281.47
2022-08-16T09:43:58.037Z,100278.88
2022-08-16T09:46:45.214Z,100284.03
2022-08-16T09:49:03.832Z,100281.19
2022-08-16T09:51:36.794Z,100281.41
2022-08-16T09:54:06.068Z,100272.34
2022-08-16T09:56:39.498Z,100268.69
2022-08-16T09:59:23.771Z,100263.78
2022-08-16T10:01:53.618Z,100276.56
2022-08-16T10:04:29.359Z,100274.09
2022-08-16T10:09:44.834Z,100274.03
2022-08-16T10:12:31.618Z,100274.03
2022-08-16T10:15:00.828Z,100278.16
2022-08-16T10:17:29.442Z,100272.78
2022-08-16T10:19:56.744Z,100267.66
2022-08-16T10:22:24.262Z,100284.16
2022-08-16T10:24:55.793Z,100277.00
2022-08-16T10:27:46.977Z,100275.97
2022-08-16T10:30:25.782Z,100278.66
2022-08-16T10:32:56.079Z,100278.44
2022-08-16T10:35:23.930Z,100281.78
2022-08-16T10:38:00.284Z,100285.13
2022-08-16T10:40:29.569Z,100284.25
2022-08-16T10:43:00.075Z,100284.69
2022-08-16T10:45:28.187Z,100280.63
2022-08-16T10:48:03.001Z,100274.41
2022-08-16T10:50:32.617Z,100276.13
2022-08-16T10:53:00.650Z,100277.72
2022-08-16T10:55:41.080Z,100279.41
2022-08-16T10:58:16.941Z,100281.56
2022-08-16T11:00:46.135Z,100291.22
2022-08-16T11:06:06.312Z,100290.09
2022-08-16T11:08:38.801Z,100286.16
2022-08-16T11:11:11.672Z,100292.44
2022-08-16T11:14:11.509Z,100289.56
2022-08-16T11:19:22.589Z,100282.78
2022-08-16T11:24:42.903Z,100289.97
2022-08-16T11:27:18.685Z,100288.66
2022-08-16T11:29:55.739Z,100291.53
2022-08-16T11:32:31.719Z,100286.38
2022-08-16T11:35:14.975Z,100283.44
2022-08-16T11:38:23.261Z,100276.50
2022-08-16T11:40:58.737Z,100283.66
2022-08-16T11:43:35.942Z,100286.59
2022-08-16T11:46:42.981Z,100291.69
2022-08-16T11:48:58.193Z,100291.59
2022-08-16T11:51:25.610Z,100295.63
2022-08-16T11:53:53.134Z,100288.22
2022-08-16T11:56:39.452Z,100282.03
2022-08-16T11:59:08.815Z,100277.06
2022-08-16T12:01:44.473Z,100277.56
2022-08-16T12:04:23.393Z,100279.81
2022-08-16T12:06:53.539Z,100281.97
2022-08-16T12:09:23.963Z,100290.38
2022-08-16T12:11:53.017Z,100282.50
2022-08-16T12:14:23.094Z,100302.06
2022-08-16T12:16:55.672Z,100297.13
2022-08-16T12:19:33.875Z,100301.91
2022-08-16T12:22:05.776Z,100300.41
2022-08-16T12:24:51.057Z,100298.38
2022-08-16T12:27:24.655Z,100290.75
2022-08-16T12:29:52.987Z,100291.56
2022-08-16T12:32:36.003Z,100279.59
2022-08-16T12:35:12.062Z,100285.59
2022-08-16T12:37:41.398Z,100282.16
2022-08-16T12:40:24.379Z,100288.81
2022-08-16T12:42:58.960Z,100281.75
2022-08-16T12:45:31.963Z,100281.75
2022-08-16T12:48:35.308Z,100277.94
2022-08-16T12:51:13.691Z,100280.31
2022-08-16T12:53:52.156Z,100276.56
2022-08-16T12:56:21.107Z,100280.13
2022-08-16T12:58:51.532Z,100281.16
2022-08-16T13:01:26.994Z,100280.19
2022-08-16T13:04:11.488Z,100279.31
2022-08-16T13:06:44.329Z,100273.47
2022-08-16T13:09:23.543Z,100268.34
2022-08-16T13:12:20.963Z,100279.47
2022-08-16T13:14:50.124Z,100276.03
2022-08-16T13:17:22.011Z,100274.63
2022-08-16T13:20:09.210Z,100273.28
2022-08-16T13:22:42.021Z,100268.78
2022-08-16T13:25:12.978Z,100253.94
2022-08-16T13:28:02.461Z,100257.44
2022-08-16T13:30:35.776Z,100255.34
2022-08-16T13:33:10.839Z,100260.81
2022-08-16T13:35:45.046Z,100245.31
2022-08-16T13:38:24.773Z,100244.75
2022-08-16T13:40:55.954Z,100232.53
2022-08-16T13:43:27.774Z,100225.09
2022-08-16T13:45:57.483Z,100216.88
2022-08-16T13:48:26.131Z,100220.91
2022-08-16T13:51:04.485Z,100229.78
2022-08-16T13:53:32.436Z,100224.16
2022-08-16T13:55:59.860Z,100216.41
2022-08-16T13:58:36.611Z,100222.09
2022-08-16T14:01:09.920Z,100231.13
2022-08-16T14:03:38.519Z,100231.69
2022-08-16T14:06:11.144Z,100235.44
2022-08-16T14:08:42.396Z,100229.25
2022-08-16T14:11:12.371Z,100230.75
2022-08-16T14:13:40.843Z,100221.97
2022-08-16T14:16:12.721Z,100223.25
2022-08-16T14:18:53.038Z,100221.78
2022-08-16T14:21:23.751Z,100224.72
2022-08-16T14:23:52.297Z,100235.91
2022-08-16T14:26:21.338Z,100237.28
2022-08-16T14:28:50.693Z,100233.63
2022-08-16T14:31:18.937Z,100228.47
2022-08-16T14:33:46.348Z,100235.56
2022-08-16T14:36:18.495Z,100230.38
2022-08-16T14:38:46.206Z,100230.03
2022-08-16T14:41:14.178Z,100230.53
2022-08-16T14:43:41.467Z,100226.38
2022-08-16T14:46:08.731Z,100215.59
2022-08-16T14:48:36.822Z,100215.47
2022-08-16T14:51:04.136Z,100212.06
2022-08-16T14:53:33.910Z,100210.25
2022-08-16T14:56:01.380Z,100210.25
2022-08-16T14:58:36.757Z,100198.00
2022-08-16T15:01:06.461Z,100192.31
2022-08-16T15:03:37.804Z,100191.56
2022-08-16T15:06:05.568Z,100203.94
2022-08-16T15:08:36.245Z,100198.06
2022-08-16T15:11:06.182Z,100191.97
2022-08-16T15:13:35.699Z,100186.09
2022-08-16T15:16:04.036Z,100182.91
2022-08-16T15:18:33.591Z,100185.88
2022-08-16T15:21:02.389Z,100189.03
2022-08-16T15:23:33.973Z,100182.09
2022-08-16T15:26:03.978Z,100181.75
2022-08-16T15:28:32.704Z,100165.09
2022-08-16T15:31:03.431Z,100169.06
2022-08-16T15:33:34.754Z,100153.97
2022-08-16T15:36:03.481Z,100147.81
2022-08-16T15:39:02.104Z,100137.75
2022-08-16T15:41:42.699Z,100163.91
2022-08-16T15:44:13.448Z,100192.44
2022-08-16T15:46:54.769Z,100315.31
2022-08-16T15:49:34.837Z,100276.75
2022-08-16T15:52:15.861Z,100264.19
2022-08-16T15:54:52.774Z,100248.47
2022-08-16T15:57:26.592Z,100224.94
2022-08-16T15:59:56.284Z,100237.72
2022-08-16T16:02:38.954Z,100249.66
2022-08-16T16:05:09.580Z,100258.84
2022-08-16T16:07:55.771Z,100273.13
2022-08-16T16:10:26.329Z,100276.75
2022-08-16T16:13:00.321Z,100286.13
2022-08-16T16:15:31.626Z,100278.97
2022-08-16T16:17:59.195Z,100271.38
2022-08-16T16:20:32.764Z,100276.19
2022-08-16T16:23:10.068Z,100272.25
2022-08-16T16:25:43.889Z,100277.84
2022-08-16T16:29:06.165Z,100308.72
2022-08-16T16:31:04.817Z,100349.16
2022-08-16T16:33:34.066Z,100351.97
2022-08-16T16:36:03.939Z,100361.22
2022-08-16T16:38:34.894Z,100377.25
2022-08-16T16:41:08.888Z,100395.22
2022-08-16T16:43:40.764Z,100419.31
2022-08-16T16:46:32.777Z,100411.31
2022-08-16T16:48:56.097Z,100409.28
2022-08-16T16:51:23.305Z,100416.28
2022-08-16T16:53:56.089Z,100394.66
2022-08-16T16:56:31.335Z,100368.66
2022-08-16T16:59:06.644Z,100348.66
2022-08-16T17:01:56.817Z,100331.00
2022-08-16T17:04:31.578Z,100307.66
2022-08-16T17:07:01.119Z,100298.53
2022-08-16T17:09:29.409Z,100301.34
2022-08-16T17:11:58.233Z,100287.34
2022-08-16T17:14:33.538Z,100273.72
2022-08-16T17:17:06.114Z,100262.84
2022-08-16T17:19:34.037Z,100239.16
2022-08-16T17:22:14.015Z,100241.94
2022-08-16T17:24:50.602Z,100240.03
2022-08-16T17:27:32.642Z,100228.06
2022-08-16T17:30:19.366Z,100232.88
2022-08-16T17:32:54.753Z,100231.28
2022-08-16T17:35:33.941Z,100221.09
2022-08-16T17:38:08.626Z,100219.13
2022-08-16T17:40:46.122Z,100207.59
2022-08-16T17:43:24.705Z,100222.06
2022-08-16T17:45:52.076Z,100229.66
2022-08-16T17:48:19.431Z,100224.91
2022-08-16T17:50:46.777Z,100211.28
2022-08-16T17:53:15.557Z,100216.03
2022-08-16T17:55:47.355Z,100227.25
2022-08-16T17:58:22.638Z,100223.72
2022-08-16T18:00:53.165Z,100220.53
2022-08-16T18:04:02.648Z,100231.78
2022-08-16T18:06:17.124Z,100232.16
2022-08-16T18:08:48.911Z,100243.00
2022-08-16T18:11:18.903Z,100240.59
2022-08-16T18:13:53.838Z,100245.38
2022-08-16T18:16:21.193Z,100243.38
2022-08-16T18:18:48.573Z,100233.66
2022-08-16T18:21:34.489Z,100234.50
2022-08-16T18:24:01.816Z,100239.72
2022-08-16T18:26:29.231Z,100242.84
2022-08-16T18:28:56.514Z,100238.38
2022-08-16T18:31:25.110Z,100250.34
2022-08-16T18:33:55.711Z,100248.72
2022-08-16T18:36:25.239Z,100254.47
2022-08-16T18:38:53.691Z,100259.25
2022-08-16T18:41:23.280Z,100272.91
2022-08-16T18:44:24.292Z,100286.53
2022-08-16T18:46:40.402Z,100284.56
2022-08-16T18:49:07.791Z,100277.69
2022-08-16T18:51:36.884Z,100282.56
2022-08-16T18:54:05.044Z,100285.72
2022-08-16T18:56:55.610Z,100279.31
2022-08-16T18:59:19.804Z,100280.91
2022-08-16T19:01:47.519Z,100276.50
2022-08-16T19:04:57.437Z,100283.28
2022-08-16T19:07:02.641Z,100280.78
2022-08-16T19:09:30.170Z,100288.88
2022-08-16T19:11:57.577Z,100288.13
2022-08-16T19:14:29.971Z,100294.56
2022-08-16T19:16:57.432Z,100301.84
2022-08-16T19:19:31.566Z,100300.19
2022-08-16T19:21:59.027Z,100300.97
2022-08-16T19:24:29.285Z,100303.38
2022-08-16T19:26:57.188Z,100304.63
2022-08-16T19:29:24.924Z,100305.34
2022-08-16T19:31:52.360Z,100309.38
2022-08-16T19:34:19.585Z,100317.31
2022-08-16T19:36:47.524Z,100306.16
2022-08-16T19:39:17.171Z,100311.00
2022-08-16T19:41:53.557Z,100303.72
2022-08-16T19:44:22.383Z,100313.75
2022-08-16T19:46:50.468Z,100313.31
2022-08-16T19:49:18.064Z,100314.50
2022-08-16T19:51:47.071Z,100326.59
2022-08-16T19:54:14.902Z,100323.03
2022-08-16T19:56:42.341Z,100325.03
2022-08-16T19:59:19.297Z,100314.69
2022-08-16T20:01:50.060Z,100319.53
2022-08-16T20:04:17.313Z,100333.56
2022-08-16T20:06:44.757Z,100339.94
2022-08-16T20:09:14.473Z,100351.59
2022-08-16T20:11:47.044Z,100350.41
2022-08-16T20:14:23.985Z,100350.78
2022-08-16T20:16:55.662Z,100347.59
2022-08-16T20:19:23.318Z,100346.78
2022-08-16T20:21:50.747Z,100350.00
2022-08-16T20:24:35.664Z,100361.19
2022-08-16T20:27:06.451Z,100350.41
2022-08-16T20:29:34.111Z,100353.16
2022-08-16T20:32:02.334Z,100355.16
2022-08-16T20:34:29.658Z,100352.75
2022-08-16T20:36:57.042Z,100358.75
2022-08-16T20:39:24.574Z,100354.78
2022-08-16T20:41:51.909Z,100354.00
2022-08-16T20:44:23.017Z,100366.31
2022-08-16T20:49:19.636Z,100351.53
2022-08-16T20:51:50.954Z,100341.13
2022-08-16T20:54:19.868Z,100348.00
2022-08-16T20:56:47.054Z,100353.59
2022-08-16T20:59:14.576Z,100350.78
2022-08-16T21:01:47.004Z,100349.59
2022-08-16T21:04:24.508Z,100345.97
2022-08-16T21:06:54.432Z,100363.59
2022-08-16T21:09:27.083Z,100358.00
2022-08-16T21:11:56.185Z,100362.00
2022-08-16T21:14:23.940Z,100360.00
2022-08-16T21:16:51.367Z,100362.41
2022-08-16T21:19:21.559Z,100358.81
2022-08-16T21:21:49.359Z,100368.00
2022-08-16T21:24:17.103Z,100364.00
2022-08-16T21:26:55.605Z,100375.25
2022-08-16T21:29:31.661Z,100364.81
2022-08-16T21:32:18.397Z,100375.94
2022-08-16T21:34:45.684Z,100377.94
2022-08-16T21:37:15.551Z,100370.81
2022-08-16T21:39:43.319Z,100364.81
2022-08-16T21:42:13.357Z,100378.38
2022-08-16T21:44:40.863Z,100386.81
2022-08-16T21:47:08.370Z,100393.66
2022-08-16T21:49:36.890Z,100390.06
2022-08-16T21:52:05.771Z,100391.66
2022-08-16T21:54:33.235Z,100391.69
2022-08-16T21:57:00.537Z,100404.09
2022-08-16T21:59:27.833Z,100401.69
2022-08-16T22:01:55.250Z,100398.47
2022-08-16T22:04:37.786Z,100392.00
2022-08-16T22:07:07.038Z,100396.44
2022-08-16T22:09:34.366Z,100401.69
2022-08-16T22:12:01.741Z,100410.88
2022-08-16T22:14:29.028Z,100400.50
2022-08-16T22:16:56.577Z,100401.28
2022-08-16T22:19:24.042Z,100395.63
2022-08-16T22:21:51.649Z,100394.00
2022-08-16T22:24:18.864Z,100382.81
2022-08-16T22:26:46.173Z,100382.03
2022-08-16T22:29:14.986Z,100388.03
2022-08-16T22:31:43.497Z,100384.47
2022-08-16T22:34:11.219Z,100399.66
2022-08-16T22:36:38.937Z,100395.22
2022-08-16T22:39:10.632Z,100395.16
2022-08-16T22:41:39.563Z,100394.75
2022-08-16T22:44:07.733Z,100387.19
2022-08-16T22:46:36.621Z,100389.22
2022-08-16T22:49:05.939Z,100384.81
2022-08-16T22:51:33.738Z,100378.69
2022-08-16T22:54:01.306Z,100383.19
2022-08-16T22:56:48.746Z,100381.22
2022-08-16T22:59:15.951Z,100384.41
2022-08-16T23:01:43.989Z,100381.13
2022-08-16T23:04:11.380Z,100371.16
2022-08-16T23:06:38.781Z,100360.34
2022-08-16T23:09:06.049Z,100356.41
2022-08-16T23:11:33.393Z,100355.59
2022-08-16T23:14:00.647Z,100352.34
2022-08-16T23:16:33.009Z,100349.94
2022-08-16T23:19:08.404Z,100346.75
2022-08-16T23:21:37.697Z,100361.59
2022-08-16T23:24:06.068Z,100356.38
2022-08-16T23:26:45.037Z,100362.00
2022-08-16T23:29:23.771Z,100352.75
2022-08-16T23:31:58.763Z,100347.13
2022-08-16T23:34:28.118Z,100355.19
2022-08-16T23:36:55.668Z,100341.50
2022-08-16T23:39:23.905Z,100341.13
2022-08-16T23:41:52.408Z,100338.72
2022-08-16T23:44:56.254Z,100334.34
2022-08-16T23:47:07.211Z,100337.94
2022-08-16T23:49:58.988Z,100336.69
2022-08-16T23:52:39.398Z,100337.47
2022-08-16T23:55:09.302Z,100336.97
2022-08-16T23:57:37.474Z,100329.81
